sensor_id;sensor_type;location;lat;lon;timestamp;P1;durP1;ratioP1;P2;durP2;ratioP2
14903;SDS011;7543;53.148;8.234;2023-08-07T00:00:09;2.97;;;2.03;;
14903;SDS011;7543;53.148;8.234;2023-08-07T00:02:38;4.53;;;2.40;;
14903;SDS011;7543;53.148;8.234;2023-08-07T00:05:06;6.67;;;2.43;;
14903;SDS011;7543;53.148;8.234;2023-08-07T00:07:35;5.83;;;2.40;;
14903;SDS011;7543;53.148;8.234;2023-08-07T00:10:04;2.90;;;2.07;;
14903;SDS011;7543;53.148;8.234;2023-08-07T00:12:33;4.67;;;2.10;;
14903;SDS011;7543;53.148;8.234;2023-08-07T00:15:01;5.30;;;2.20;;
14903;SDS011;7543;53.148;8.234;2023-08-07T00:17:31;3.13;;;2.00;;
14903;SDS011;7543;53.148;8.234;2023-08-07T00:20:00;2.50;;;1.83;;
14903;SDS011;7543;53.148;8.234;2023-08-07T00:22:28;2.60;;;1.90;;
14903;SDS011;7543;53.148;8.234;2023-08-07T00:24:56;2.07;;;1.77;;
14903;SDS011;7543;53.148;8.234;2023-08-07T00:27:24;3.93;;;2.27;;
14903;SDS011;7543;53.148;8.234;2023-08-07T00:29:53;3.03;;;2.00;;
14903;SDS011;7543;53.148;8.234;2023-08-07T00:32:21;6.53;;;2.27;;
14903;SDS011;7543;53.148;8.234;2023-08-07T00:34:51;2.87;;;2.13;;
14903;SDS011;7543;53.148;8.234;2023-08-07T00:37:19;4.17;;;1.93;;
14903;SDS011;7543;53.148;8.234;2023-08-07T00:39:47;3.07;;;1.93;;
14903;SDS011;7543;53.148;8.234;2023-08-07T00:42:16;5.00;;;2.20;;
14903;SDS011;7543;53.148;8.234;2023-08-07T00:44:44;4.40;;;2.30;;
14903;SDS011;7543;53.148;8.234;2023-08-07T00:47:12;3.43;;;2.13;;
14903;SDS011;7543;53.148;8.234;2023-08-07T00:49:41;3.70;;;1.77;;
14903;SDS011;7543;53.148;8.234;2023-08-07T00:52:10;2.27;;;1.70;;
14903;SDS011;7543;53.148;8.234;2023-08-07T00:54:39;6.10;;;2.23;;
14903;SDS011;7543;53.148;8.234;2023-08-07T00:57:11;4.53;;;1.80;;
14903;SDS011;7543;53.148;8.234;2023-08-07T00:59:41;5.23;;;2.00;;
14903;SDS011;7543;53.148;8.234;2023-08-07T01:02:10;3.70;;;2.20;;
14903;SDS011;7543;53.148;8.234;2023-08-07T01:04:40;4.10;;;2.40;;
14903;SDS011;7543;53.148;8.234;2023-08-07T01:07:09;4.40;;;2.40;;
14903;SDS011;7543;53.148;8.234;2023-08-07T01:09:38;3.70;;;2.20;;
14903;SDS011;7543;53.148;8.234;2023-08-07T01:12:09;4.50;;;1.90;;
14903;SDS011;7543;53.148;8.234;2023-08-07T01:14:46;2.83;;;1.90;;
14903;SDS011;7543;53.148;8.234;2023-08-07T01:17:19;3.50;;;2.20;;
14903;SDS011;7543;53.148;8.234;2023-08-07T01:19:49;2.43;;;2.10;;
14903;SDS011;7543;53.148;8.234;2023-08-07T01:22:19;4.90;;;2.43;;
14903;SDS011;7543;53.148;8.234;2023-08-07T01:24:49;3.37;;;2.20;;
14903;SDS011;7543;53.148;8.234;2023-08-07T01:27:30;2.83;;;2.10;;
14903;SDS011;7543;53.148;8.234;2023-08-07T01:30:08;3.47;;;2.07;;
14903;SDS011;7543;53.148;8.234;2023-08-07T01:32:41;2.30;;;1.77;;
14903;SDS011;7543;53.148;8.234;2023-08-07T01:35:14;3.80;;;2.03;;
14903;SDS011;7543;53.148;8.234;2023-08-07T01:37:45;4.10;;;2.13;;
14903;SDS011;7543;53.148;8.234;2023-08-07T01:40:14;2.40;;;1.70;;
14903;SDS011;7543;53.148;8.234;2023-08-07T01:42:43;3.87;;;2.13;;
14903;SDS011;7543;53.148;8.234;2023-08-07T01:45:12;3.97;;;2.30;;
14903;SDS011;7543;53.148;8.234;2023-08-07T01:47:40;6.40;;;2.40;;
14903;SDS011;7543;53.148;8.234;2023-08-07T01:50:09;6.30;;;2.50;;
14903;SDS011;7543;53.148;8.234;2023-08-07T01:52:37;3.23;;;2.20;;
14903;SDS011;7543;53.148;8.234;2023-08-07T01:55:07;3.20;;;2.23;;
14903;SDS011;7543;53.148;8.234;2023-08-07T01:57:36;4.13;;;2.30;;
14903;SDS011;7543;53.148;8.234;2023-08-07T02:00:04;2.77;;;2.20;;
14903;SDS011;7543;53.148;8.234;2023-08-07T02:02:41;3.17;;;2.10;;
14903;SDS011;7543;53.148;8.234;2023-08-07T02:05:11;5.17;;;2.33;;
14903;SDS011;7543;53.148;8.234;2023-08-07T02:07:40;8.13;;;2.47;;
14903;SDS011;7543;53.148;8.234;2023-08-07T02:10:10;3.60;;;2.63;;
14903;SDS011;7543;53.148;8.234;2023-08-07T02:12:38;4.70;;;2.40;;
14903;SDS011;7543;53.148;8.234;2023-08-07T02:15:07;3.10;;;2.17;;
14903;SDS011;7543;53.148;8.234;2023-08-07T02:17:36;4.00;;;2.60;;
14903;SDS011;7543;53.148;8.234;2023-08-07T02:20:08;2.77;;;2.20;;
14903;SDS011;7543;53.148;8.234;2023-08-07T02:22:37;3.33;;;2.20;;
14903;SDS011;7543;53.148;8.234;2023-08-07T02:25:05;4.90;;;2.60;;
14903;SDS011;7543;53.148;8.234;2023-08-07T02:27:35;3.20;;;2.50;;
14903;SDS011;7543;53.148;8.234;2023-08-07T02:30:05;3.67;;;2.40;;
14903;SDS011;7543;53.148;8.234;2023-08-07T02:32:34;3.20;;;2.37;;
14903;SDS011;7543;53.148;8.234;2023-08-07T02:35:02;5.43;;;2.57;;
14903;SDS011;7543;53.148;8.234;2023-08-07T02:37:31;3.40;;;2.27;;
14903;SDS011;7543;53.148;8.234;2023-08-07T02:39:59;4.67;;;2.47;;
14903;SDS011;7543;53.148;8.234;2023-08-07T02:42:27;4.07;;;2.47;;
14903;SDS011;7543;53.148;8.234;2023-08-07T02:44:57;3.77;;;2.50;;
14903;SDS011;7543;53.148;8.234;2023-08-07T02:47:25;5.80;;;1.83;;
14903;SDS011;7543;53.148;8.234;2023-08-07T02:49:54;3.30;;;1.83;;
14903;SDS011;7543;53.148;8.234;2023-08-07T02:52:22;1.90;;;1.50;;
14903;SDS011;7543;53.148;8.234;2023-08-07T02:54:50;2.43;;;1.77;;
14903;SDS011;7543;53.148;8.234;2023-08-07T02:57:19;3.17;;;1.73;;
14903;SDS011;7543;53.148;8.234;2023-08-07T02:59:47;3.00;;;1.77;;
14903;SDS011;7543;53.148;8.234;2023-08-07T03:02:17;2.03;;;1.50;;
14903;SDS011;7543;53.148;8.234;2023-08-07T03:04:45;2.13;;;1.60;;
14903;SDS011;7543;53.148;8.234;2023-08-07T03:07:13;2.60;;;1.90;;
14903;SDS011;7543;53.148;8.234;2023-08-07T03:09:44;3.83;;;2.10;;
14903;SDS011;7543;53.148;8.234;2023-08-07T03:12:13;2.50;;;2.00;;
14903;SDS011;7543;53.148;8.234;2023-08-07T03:14:41;3.17;;;2.00;;
14903;SDS011;7543;53.148;8.234;2023-08-07T03:17:09;2.50;;;1.90;;
14903;SDS011;7543;53.148;8.234;2023-08-07T03:19:42;3.00;;;1.90;;
14903;SDS011;7543;53.148;8.234;2023-08-07T03:22:10;3.70;;;2.33;;
14903;SDS011;7543;53.148;8.234;2023-08-07T03:24:39;5.20;;;2.30;;
14903;SDS011;7543;53.148;8.234;2023-08-07T03:27:07;3.00;;;2.10;;
14903;SDS011;7543;53.148;8.234;2023-08-07T03:29:35;4.20;;;2.50;;
14903;SDS011;7543;53.148;8.234;2023-08-07T03:32:04;4.43;;;1.93;;
14903;SDS011;7543;53.148;8.234;2023-08-07T03:34:34;5.03;;;2.30;;
14903;SDS011;7543;53.148;8.234;2023-08-07T03:37:04;5.57;;;2.27;;
14903;SDS011;7543;53.148;8.234;2023-08-07T03:39:32;6.23;;;2.20;;
14903;SDS011;7543;53.148;8.234;2023-08-07T03:42:01;3.53;;;2.13;;
14903;SDS011;7543;53.148;8.234;2023-08-07T03:44:29;4.80;;;1.90;;
14903;SDS011;7543;53.148;8.234;2023-08-07T03:47:00;3.63;;;1.90;;
14903;SDS011;7543;53.148;8.234;2023-08-07T03:49:28;4.27;;;2.23;;
14903;SDS011;7543;53.148;8.234;2023-08-07T03:51:57;3.53;;;1.70;;
14903;SDS011;7543;53.148;8.234;2023-08-07T03:54:27;2.97;;;1.83;;
14903;SDS011;7543;53.148;8.234;2023-08-07T03:56:56;3.87;;;1.87;;
14903;SDS011;7543;53.148;8.234;2023-08-07T03:59:24;1.97;;;1.60;;
14903;SDS011;7543;53.148;8.234;2023-08-07T04:01:52;2.27;;;1.40;;
14903;SDS011;7543;53.148;8.234;2023-08-07T04:04:20;2.33;;;1.30;;
14903;SDS011;7543;53.148;8.234;2023-08-07T04:06:49;1.83;;;1.37;;
14903;SDS011;7543;53.148;8.234;2023-08-07T04:09:17;5.83;;;1.70;;
14903;SDS011;7543;53.148;8.234;2023-08-07T04:11:47;3.97;;;1.50;;
14903;SDS011;7543;53.148;8.234;2023-08-07T04:14:15;3.83;;;1.43;;
14903;SDS011;7543;53.148;8.234;2023-08-07T04:16:43;3.23;;;1.63;;
14903;SDS011;7543;53.148;8.234;2023-08-07T04:19:12;2.43;;;1.33;;
14903;SDS011;7543;53.148;8.234;2023-08-07T04:21:40;3.13;;;1.37;;
14903;SDS011;7543;53.148;8.234;2023-08-07T04:24:09;3.23;;;1.43;;
14903;SDS011;7543;53.148;8.234;2023-08-07T04:26:38;2.17;;;1.40;;
14903;SDS011;7543;53.148;8.234;2023-08-07T04:29:07;3.50;;;1.33;;
14903;SDS011;7543;53.148;8.234;2023-08-07T04:31:36;2.40;;;1.10;;
14903;SDS011;7543;53.148;8.234;2023-08-07T04:34:04;4.33;;;1.70;;
14903;SDS011;7543;53.148;8.234;2023-08-07T04:36:32;2.60;;;1.47;;
14903;SDS011;7543;53.148;8.234;2023-08-07T04:39:01;4.70;;;1.10;;
14903;SDS011;7543;53.148;8.234;2023-08-07T04:41:29;1.87;;;1.13;;
14903;SDS011;7543;53.148;8.234;2023-08-07T04:43:57;1.40;;;1.13;;
14903;SDS011;7543;53.148;8.234;2023-08-07T04:46:27;2.63;;;1.30;;
14903;SDS011;7543;53.148;8.234;2023-08-07T04:48:55;3.27;;;1.03;;
14903;SDS011;7543;53.148;8.234;2023-08-07T04:51:25;3.50;;;1.47;;
14903;SDS011;7543;53.148;8.234;2023-08-07T04:53:55;2.67;;;1.13;;
14903;SDS011;7543;53.148;8.234;2023-08-07T04:56:23;3.33;;;1.30;;
14903;SDS011;7543;53.148;8.234;2023-08-07T04:58:51;0.97;;;0.90;;
14903;SDS011;7543;53.148;8.234;2023-08-07T05:01:20;4.10;;;1.10;;
14903;SDS011;7543;53.148;8.234;2023-08-07T05:03:50;2.40;;;1.40;;
14903;SDS011;7543;53.148;8.234;2023-08-07T05:06:18;3.70;;;1.20;;
14903;SDS011;7543;53.148;8.234;2023-08-07T05:08:46;1.83;;;1.23;;
14903;SDS011;7543;53.148;8.234;2023-08-07T05:11:15;1.50;;;1.20;;
14903;SDS011;7543;53.148;8.234;2023-08-07T05:13:43;1.83;;;1.20;;
14903;SDS011;7543;53.148;8.234;2023-08-07T05:16:11;4.67;;;1.80;;
14903;SDS011;7543;53.148;8.234;2023-08-07T05:18:40;1.77;;;1.13;;
14903;SDS011;7543;53.148;8.234;2023-08-07T05:21:09;3.60;;;1.40;;
14903;SDS011;7543;53.148;8.234;2023-08-07T05:23:38;4.87;;;1.67;;
14903;SDS011;7543;53.148;8.234;2023-08-07T05:26:06;1.43;;;1.30;;
14903;SDS011;7543;53.148;8.234;2023-08-07T05:28:34;2.77;;;1.40;;
14903;SDS011;7543;53.148;8.234;2023-08-07T05:31:02;2.10;;;1.27;;
14903;SDS011;7543;53.148;8.234;2023-08-07T05:33:31;2.60;;;1.40;;
14903;SDS011;7543;53.148;8.234;2023-08-07T05:35:59;2.60;;;1.57;;
14903;SDS011;7543;53.148;8.234;2023-08-07T05:38:30;2.47;;;1.40;;
14903;SDS011;7543;53.148;8.234;2023-08-07T05:40:58;3.73;;;1.53;;
14903;SDS011;7543;53.148;8.234;2023-08-07T05:43:26;5.13;;;1.50;;
14903;SDS011;7543;53.148;8.234;2023-08-07T05:45:54;4.47;;;1.40;;
14903;SDS011;7543;53.148;8.234;2023-08-07T05:48:23;2.07;;;1.50;;
14903;SDS011;7543;53.148;8.234;2023-08-07T05:50:51;3.73;;;1.30;;
14903;SDS011;7543;53.148;8.234;2023-08-07T05:53:20;2.47;;;1.43;;
14903;SDS011;7543;53.148;8.234;2023-08-07T05:55:49;4.97;;;1.30;;
14903;SDS011;7543;53.148;8.234;2023-08-07T05:58:18;2.83;;;1.27;;
14903;SDS011;7543;53.148;8.234;2023-08-07T06:00:46;3.43;;;1.07;;
14903;SDS011;7543;53.148;8.234;2023-08-07T06:03:15;2.03;;;1.07;;
14903;SDS011;7543;53.148;8.234;2023-08-07T06:05:43;2.80;;;1.50;;
14903;SDS011;7543;53.148;8.234;2023-08-07T06:08:11;1.37;;;1.10;;
14903;SDS011;7543;53.148;8.234;2023-08-07T06:10:40;4.00;;;1.70;;
14903;SDS011;7543;53.148;8.234;2023-08-07T06:13:10;4.23;;;1.70;;
14903;SDS011;7543;53.148;8.234;2023-08-07T06:15:38;2.53;;;1.43;;
14903;SDS011;7543;53.148;8.234;2023-08-07T06:18:07;2.97;;;1.07;;
14903;SDS011;7543;53.148;8.234;2023-08-07T06:20:35;4.93;;;1.63;;
14903;SDS011;7543;53.148;8.234;2023-08-07T06:23:04;5.50;;;1.30;;
14903;SDS011;7543;53.148;8.234;2023-08-07T06:25:32;5.03;;;1.30;;
14903;SDS011;7543;53.148;8.234;2023-08-07T06:28:00;5.53;;;1.30;;
14903;SDS011;7543;53.148;8.234;2023-08-07T06:30:30;1.80;;;1.10;;
14903;SDS011;7543;53.148;8.234;2023-08-07T06:32:58;4.63;;;1.63;;
14903;SDS011;7543;53.148;8.234;2023-08-07T06:35:27;2.90;;;1.30;;
14903;SDS011;7543;53.148;8.234;2023-08-07T06:37:55;3.57;;;1.40;;
14903;SDS011;7543;53.148;8.234;2023-08-07T06:40:23;5.27;;;1.57;;
14903;SDS011;7543;53.148;8.234;2023-08-07T06:42:52;3.03;;;1.43;;
14903;SDS011;7543;53.148;8.234;2023-08-07T06:45:21;5.87;;;1.83;;
14903;SDS011;7543;53.148;8.234;2023-08-07T06:47:50;6.87;;;1.83;;
14903;SDS011;7543;53.148;8.234;2023-08-07T06:50:19;10.60;;;1.70;;
14903;SDS011;7543;53.148;8.234;2023-08-07T06:52:47;5.00;;;1.70;;
14903;SDS011;7543;53.148;8.234;2023-08-07T06:55:15;6.53;;;1.77;;
14903;SDS011;7543;53.148;8.234;2023-08-07T06:57:43;3.63;;;1.63;;
14903;SDS011;7543;53.148;8.234;2023-08-07T07:00:12;6.63;;;2.33;;
14903;SDS011;7543;53.148;8.234;2023-08-07T07:02:40;4.80;;;1.40;;
14903;SDS011;7543;53.148;8.234;2023-08-07T07:05:10;5.47;;;1.70;;
14903;SDS011;7543;53.148;8.234;2023-08-07T07:07:38;5.23;;;1.60;;
14903;SDS011;7543;53.148;8.234;2023-08-07T07:10:06;7.33;;;1.90;;
14903;SDS011;7543;53.148;8.234;2023-08-07T07:12:35;3.97;;;1.70;;
14903;SDS011;7543;53.148;8.234;2023-08-07T07:15:04;8.67;;;2.27;;
14903;SDS011;7543;53.148;8.234;2023-08-07T07:17:33;4.40;;;1.70;;
14903;SDS011;7543;53.148;8.234;2023-08-07T07:20:01;7.67;;;2.07;;
14903;SDS011;7543;53.148;8.234;2023-08-07T07:22:31;5.37;;;1.90;;
14903;SDS011;7543;53.148;8.234;2023-08-07T07:25:00;9.53;;;1.93;;
14903;SDS011;7543;53.148;8.234;2023-08-07T07:27:28;6.63;;;2.37;;
14903;SDS011;7543;53.148;8.234;2023-08-07T07:29:56;5.43;;;1.57;;
14903;SDS011;7543;53.148;8.234;2023-08-07T07:32:24;7.73;;;2.10;;
14903;SDS011;7543;53.148;8.234;2023-08-07T07:34:53;9.67;;;2.00;;
14903;SDS011;7543;53.148;8.234;2023-08-07T07:37:21;7.47;;;2.17;;
14903;SDS011;7543;53.148;8.234;2023-08-07T07:39:51;6.67;;;2.20;;
14903;SDS011;7543;53.148;8.234;2023-08-07T07:42:19;17.50;;;3.00;;
14903;SDS011;7543;53.148;8.234;2023-08-07T07:44:48;11.83;;;2.50;;
14903;SDS011;7543;53.148;8.234;2023-08-07T07:47:16;6.23;;;1.90;;
14903;SDS011;7543;53.148;8.234;2023-08-07T07:49:45;7.77;;;2.37;;
14903;SDS011;7543;53.148;8.234;2023-08-07T07:52:14;6.13;;;1.60;;
14903;SDS011;7543;53.148;8.234;2023-08-07T07:54:43;6.10;;;1.80;;
14903;SDS011;7543;53.148;8.234;2023-08-07T07:57:13;7.00;;;1.80;;
14903;SDS011;7543;53.148;8.234;2023-08-07T07:59:41;7.70;;;2.37;;
14903;SDS011;7543;53.148;8.234;2023-08-07T08:02:10;5.07;;;1.87;;
14903;SDS011;7543;53.148;8.234;2023-08-07T08:04:38;5.40;;;1.57;;
14903;SDS011;7543;53.148;8.234;2023-08-07T08:07:09;5.87;;;1.77;;
14903;SDS011;7543;53.148;8.234;2023-08-07T08:09:38;8.13;;;2.07;;
14903;SDS011;7543;53.148;8.234;2023-08-07T08:12:06;6.77;;;1.80;;
14903;SDS011;7543;53.148;8.234;2023-08-07T08:14:37;3.73;;;1.73;;
14903;SDS011;7543;53.148;8.234;2023-08-07T08:17:05;4.80;;;1.87;;
14903;SDS011;7543;53.148;8.234;2023-08-07T08:19:33;5.93;;;1.47;;
14903;SDS011;7543;53.148;8.234;2023-08-07T08:22:02;4.70;;;1.47;;
14903;SDS011;7543;53.148;8.234;2023-08-07T08:24:30;5.93;;;1.90;;
14903;SDS011;7543;53.148;8.234;2023-08-07T08:26:59;5.20;;;1.53;;
14903;SDS011;7543;53.148;8.234;2023-08-07T08:29:28;3.70;;;1.27;;
14903;SDS011;7543;53.148;8.234;2023-08-07T08:31:58;2.50;;;1.00;;
14903;SDS011;7543;53.148;8.234;2023-08-07T08:34:27;4.87;;;1.47;;
14903;SDS011;7543;53.148;8.234;2023-08-07T08:36:55;6.17;;;1.47;;
14903;SDS011;7543;53.148;8.234;2023-08-07T08:39:23;3.43;;;1.30;;
14903;SDS011;7543;53.148;8.234;2023-08-07T08:41:52;4.27;;;1.17;;
14903;SDS011;7543;53.148;8.234;2023-08-07T08:44:21;5.63;;;1.53;;
14903;SDS011;7543;53.148;8.234;2023-08-07T08:46:51;6.53;;;1.97;;
14903;SDS011;7543;53.148;8.234;2023-08-07T08:49:26;3.73;;;1.50;;
14903;SDS011;7543;53.148;8.234;2023-08-07T08:52:01;5.03;;;1.70;;
14903;SDS011;7543;53.148;8.234;2023-08-07T08:54:30;7.73;;;1.60;;
14903;SDS011;7543;53.148;8.234;2023-08-07T08:57:00;8.00;;;1.63;;
14903;SDS011;7543;53.148;8.234;2023-08-07T08:59:28;12.47;;;2.17;;
14903;SDS011;7543;53.148;8.234;2023-08-07T09:01:57;7.60;;;1.63;;
14903;SDS011;7543;53.148;8.234;2023-08-07T09:04:27;5.67;;;1.50;;
14903;SDS011;7543;53.148;8.234;2023-08-07T09:06:59;4.87;;;1.67;;
14903;SDS011;7543;53.148;8.234;2023-08-07T09:09:29;5.10;;;1.77;;
14903;SDS011;7543;53.148;8.234;2023-08-07T09:11:57;6.67;;;1.87;;
14903;SDS011;7543;53.148;8.234;2023-08-07T09:14:27;7.40;;;2.00;;
14903;SDS011;7543;53.148;8.234;2023-08-07T09:16:58;4.10;;;1.50;;
14903;SDS011;7543;53.148;8.234;2023-08-07T09:19:28;4.37;;;2.03;;
14903;SDS011;7543;53.148;8.234;2023-08-07T09:21:57;4.63;;;1.50;;
14903;SDS011;7543;53.148;8.234;2023-08-07T09:24:26;6.97;;;1.50;;
14903;SDS011;7543;53.148;8.234;2023-08-07T09:26:54;4.70;;;1.40;;
14903;SDS011;7543;53.148;8.234;2023-08-07T09:29:23;12.30;;;1.63;;
14903;SDS011;7543;53.148;8.234;2023-08-07T09:31:52;6.03;;;1.93;;
14903;SDS011;7543;53.148;8.234;2023-08-07T09:34:21;6.07;;;1.80;;
14903;SDS011;7543;53.148;8.234;2023-08-07T09:36:51;6.17;;;1.53;;
14903;SDS011;7543;53.148;8.234;2023-08-07T09:39:20;4.17;;;1.80;;
14903;SDS011;7543;53.148;8.234;2023-08-07T09:41:52;7.40;;;1.63;;
14903;SDS011;7543;53.148;8.234;2023-08-07T09:44:20;4.73;;;1.57;;
14903;SDS011;7543;53.148;8.234;2023-08-07T09:46:49;7.07;;;1.90;;
14903;SDS011;7543;53.148;8.234;2023-08-07T09:49:18;5.43;;;1.67;;
14903;SDS011;7543;53.148;8.234;2023-08-07T09:51:47;6.37;;;1.43;;
14903;SDS011;7543;53.148;8.234;2023-08-07T09:54:18;7.60;;;1.47;;
14903;SDS011;7543;53.148;8.234;2023-08-07T09:56:47;3.20;;;1.30;;
14903;SDS011;7543;53.148;8.234;2023-08-07T09:59:15;6.23;;;1.37;;
14903;SDS011;7543;53.148;8.234;2023-08-07T10:01:44;5.93;;;1.30;;
14903;SDS011;7543;53.148;8.234;2023-08-07T10:04:12;3.67;;;1.37;;
14903;SDS011;7543;53.148;8.234;2023-08-07T10:06:43;3.50;;;1.30;;
14903;SDS011;7543;53.148;8.234;2023-08-07T10:09:11;2.37;;;1.10;;
14903;SDS011;7543;53.148;8.234;2023-08-07T10:11:42;2.77;;;1.20;;
14903;SDS011;7543;53.148;8.234;2023-08-07T10:14:10;2.27;;;0.70;;
14903;SDS011;7543;53.148;8.234;2023-08-07T10:16:40;1.70;;;1.10;;
14903;SDS011;7543;53.148;8.234;2023-08-07T10:19:09;3.70;;;1.03;;
14903;SDS011;7543;53.148;8.234;2023-08-07T10:21:38;1.20;;;0.83;;
14903;SDS011;7543;53.148;8.234;2023-08-07T10:24:07;1.00;;;0.80;;
14903;SDS011;7543;53.148;8.234;2023-08-07T10:26:37;2.43;;;1.00;;
14903;SDS011;7543;53.148;8.234;2023-08-07T10:29:13;2.93;;;1.10;;
14903;SDS011;7543;53.148;8.234;2023-08-07T10:31:42;5.17;;;1.50;;
14903;SDS011;7543;53.148;8.234;2023-08-07T10:34:12;3.87;;;1.40;;
14903;SDS011;7543;53.148;8.234;2023-08-07T10:36:41;6.63;;;1.90;;
14903;SDS011;7543;53.148;8.234;2023-08-07T10:39:10;5.47;;;1.77;;
14903;SDS011;7543;53.148;8.234;2023-08-07T10:41:39;5.40;;;1.50;;
14903;SDS011;7543;53.148;8.234;2023-08-07T10:44:20;5.17;;;1.87;;
14903;SDS011;7543;53.148;8.234;2023-08-07T10:46:49;6.47;;;1.80;;
14903;SDS011;7543;53.148;8.234;2023-08-07T10:49:32;6.00;;;1.80;;
14903;SDS011;7543;53.148;8.234;2023-08-07T10:52:02;3.63;;;1.60;;
14903;SDS011;7543;53.148;8.234;2023-08-07T10:54:36;7.57;;;1.77;;
14903;SDS011;7543;53.148;8.234;2023-08-07T10:57:11;9.10;;;1.83;;
14903;SDS011;7543;53.148;8.234;2023-08-07T10:59:48;7.80;;;1.87;;
14903;SDS011;7543;53.148;8.234;2023-08-07T11:02:22;5.30;;;1.70;;
14903;SDS011;7543;53.148;8.234;2023-08-07T11:04:52;6.63;;;1.57;;
14903;SDS011;7543;53.148;8.234;2023-08-07T11:07:24;3.80;;;1.53;;
14903;SDS011;7543;53.148;8.234;2023-08-07T11:09:53;6.63;;;1.77;;
14903;SDS011;7543;53.148;8.234;2023-08-07T11:12:24;4.87;;;1.60;;
14903;SDS011;7543;53.148;8.234;2023-08-07T11:14:54;4.37;;;1.60;;
14903;SDS011;7543;53.148;8.234;2023-08-07T11:17:24;9.23;;;1.43;;
14903;SDS011;7543;53.148;8.234;2023-08-07T11:19:53;7.57;;;1.90;;
14903;SDS011;7543;53.148;8.234;2023-08-07T11:22:22;6.47;;;1.90;;
14903;SDS011;7543;53.148;8.234;2023-08-07T11:24:50;6.27;;;1.77;;
14903;SDS011;7543;53.148;8.234;2023-08-07T11:27:20;4.67;;;1.53;;
14903;SDS011;7543;53.148;8.234;2023-08-07T11:29:49;6.13;;;1.70;;
14903;SDS011;7543;53.148;8.234;2023-08-07T11:32:19;4.23;;;1.73;;
14903;SDS011;7543;53.148;8.234;2023-08-07T11:34:49;4.93;;;1.50;;
14903;SDS011;7543;53.148;8.234;2023-08-07T11:37:18;5.90;;;1.70;;
14903;SDS011;7543;53.148;8.234;2023-08-07T11:39:47;10.10;;;1.80;;
14903;SDS011;7543;53.148;8.234;2023-08-07T11:42:15;6.50;;;1.33;;
14903;SDS011;7543;53.148;8.234;2023-08-07T11:44:44;5.43;;;1.60;;
14903;SDS011;7543;53.148;8.234;2023-08-07T11:47:13;2.20;;;1.40;;
14903;SDS011;7543;53.148;8.234;2023-08-07T11:49:44;6.53;;;1.83;;
14903;SDS011;7543;53.148;8.234;2023-08-07T11:52:13;3.53;;;1.30;;
14903;SDS011;7543;53.148;8.234;2023-08-07T11:54:46;4.27;;;1.27;;
14903;SDS011;7543;53.148;8.234;2023-08-07T11:57:16;3.40;;;1.33;;
14903;SDS011;7543;53.148;8.234;2023-08-07T11:59:49;5.23;;;1.27;;
14903;SDS011;7543;53.148;8.234;2023-08-07T12:02:22;5.67;;;1.40;;
14903;SDS011;7543;53.148;8.234;2023-08-07T12:04:52;5.87;;;1.20;;
14903;SDS011;7543;53.148;8.234;2023-08-07T12:07:25;3.27;;;1.40;;
14903;SDS011;7543;53.148;8.234;2023-08-07T12:09:53;5.83;;;1.53;;
14903;SDS011;7543;53.148;8.234;2023-08-07T12:12:22;2.33;;;1.20;;
14903;SDS011;7543;53.148;8.234;2023-08-07T12:14:52;7.37;;;1.70;;
14903;SDS011;7543;53.148;8.234;2023-08-07T12:17:21;4.27;;;1.27;;
14903;SDS011;7543;53.148;8.234;2023-08-07T12:19:52;5.20;;;1.40;;
14903;SDS011;7543;53.148;8.234;2023-08-07T12:22:20;2.80;;;1.20;;
14903;SDS011;7543;53.148;8.234;2023-08-07T12:24:48;6.80;;;1.40;;
14903;SDS011;7543;53.148;8.234;2023-08-07T12:27:17;2.83;;;1.33;;
14903;SDS011;7543;53.148;8.234;2023-08-07T12:29:46;3.70;;;1.30;;
14903;SDS011;7543;53.148;8.234;2023-08-07T12:32:14;3.53;;;1.40;;
14903;SDS011;7543;53.148;8.234;2023-08-07T12:34:42;2.43;;;1.20;;
14903;SDS011;7543;53.148;8.234;2023-08-07T12:37:13;5.67;;;1.50;;
14903;SDS011;7543;53.148;8.234;2023-08-07T12:39:41;4.30;;;1.40;;
14903;SDS011;7543;53.148;8.234;2023-08-07T12:42:09;3.87;;;1.30;;
14903;SDS011;7543;53.148;8.234;2023-08-07T12:44:37;3.67;;;1.50;;
14903;SDS011;7543;53.148;8.234;2023-08-07T12:47:06;2.70;;;1.20;;
14903;SDS011;7543;53.148;8.234;2023-08-07T12:49:34;5.07;;;1.50;;
14903;SDS011;7543;53.148;8.234;2023-08-07T12:52:03;6.53;;;1.70;;
14903;SDS011;7543;53.148;8.234;2023-08-07T12:54:33;5.90;;;1.70;;
14903;SDS011;7543;53.148;8.234;2023-08-07T12:57:02;4.37;;;1.50;;
14903;SDS011;7543;53.148;8.234;2023-08-07T12:59:31;4.17;;;1.70;;
14903;SDS011;7543;53.148;8.234;2023-08-07T13:01:59;4.43;;;1.57;;
14903;SDS011;7543;53.148;8.234;2023-08-07T13:04:28;7.57;;;1.73;;
14903;SDS011;7543;53.148;8.234;2023-08-07T13:06:56;3.63;;;1.53;;
14903;SDS011;7543;53.148;8.234;2023-08-07T13:09:24;2.73;;;1.47;;
14903;SDS011;7543;53.148;8.234;2023-08-07T13:11:54;5.37;;;1.43;;
14903;SDS011;7543;53.148;8.234;2023-08-07T13:14:23;3.03;;;1.20;;
14903;SDS011;7543;53.148;8.234;2023-08-07T13:16:52;3.57;;;1.07;;
14903;SDS011;7543;53.148;8.234;2023-08-07T13:19:21;2.73;;;1.50;;
14903;SDS011;7543;53.148;8.234;2023-08-07T13:21:49;2.53;;;1.50;;
14903;SDS011;7543;53.148;8.234;2023-08-07T13:24:18;5.60;;;1.40;;
14903;SDS011;7543;53.148;8.234;2023-08-07T13:26:46;4.30;;;1.60;;
14903;SDS011;7543;53.148;8.234;2023-08-07T13:29:16;6.80;;;1.70;;
14903;SDS011;7543;53.148;8.234;2023-08-07T13:31:44;2.70;;;1.50;;
14903;SDS011;7543;53.148;8.234;2023-08-07T13:34:13;3.87;;;1.30;;
14903;SDS011;7543;53.148;8.234;2023-08-07T13:36:41;4.57;;;1.43;;
14903;SDS011;7543;53.148;8.234;2023-08-07T13:39:10;5.10;;;1.30;;
14903;SDS011;7543;53.148;8.234;2023-08-07T13:41:38;3.37;;;1.43;;
14903;SDS011;7543;53.148;8.234;2023-08-07T13:44:06;5.03;;;1.30;;
14903;SDS011;7543;53.148;8.234;2023-08-07T13:46:36;6.33;;;1.40;;
14903;SDS011;7543;53.148;8.234;2023-08-07T13:49:07;3.23;;;1.63;;
14903;SDS011;7543;53.148;8.234;2023-08-07T13:51:36;2.03;;;1.03;;
14903;SDS011;7543;53.148;8.234;2023-08-07T13:54:07;3.47;;;1.43;;
14903;SDS011;7543;53.148;8.234;2023-08-07T13:56:36;2.97;;;1.33;;
14903;SDS011;7543;53.148;8.234;2023-08-07T13:59:04;6.00;;;1.40;;
14903;SDS011;7543;53.148;8.234;2023-08-07T14:01:32;6.03;;;1.60;;
14903;SDS011;7543;53.148;8.234;2023-08-07T14:04:03;3.77;;;1.60;;
14903;SDS011;7543;53.148;8.234;2023-08-07T14:06:33;3.13;;;1.50;;
14903;SDS011;7543;53.148;8.234;2023-08-07T14:09:01;6.70;;;1.60;;
14903;SDS011;7543;53.148;8.234;2023-08-07T14:11:30;2.77;;;1.30;;
14903;SDS011;7543;53.148;8.234;2023-08-07T14:13:58;3.10;;;1.30;;
14903;SDS011;7543;53.148;8.234;2023-08-07T14:16:27;7.17;;;1.50;;
14903;SDS011;7543;53.148;8.234;2023-08-07T14:18:55;5.17;;;1.37;;
14903;SDS011;7543;53.148;8.234;2023-08-07T14:21:25;5.87;;;1.20;;
14903;SDS011;7543;53.148;8.234;2023-08-07T14:23:54;7.63;;;1.90;;
14903;SDS011;7543;53.148;8.234;2023-08-07T14:26:23;4.00;;;1.30;;
14903;SDS011;7543;53.148;8.234;2023-08-07T14:28:51;4.50;;;1.40;;
14903;SDS011;7543;53.148;8.234;2023-08-07T14:31:20;3.37;;;1.40;;
14903;SDS011;7543;53.148;8.234;2023-08-07T14:33:48;1.97;;;1.10;;
14903;SDS011;7543;53.148;8.234;2023-08-07T14:36:16;1.73;;;0.80;;
14903;SDS011;7543;53.148;8.234;2023-08-07T14:38:46;2.50;;;1.20;;
14903;SDS011;7543;53.148;8.234;2023-08-07T14:41:14;2.57;;;1.27;;
14903;SDS011;7543;53.148;8.234;2023-08-07T14:43:43;1.77;;;0.80;;
14903;SDS011;7543;53.148;8.234;2023-08-07T14:46:12;2.47;;;1.20;;
14903;SDS011;7543;53.148;8.234;2023-08-07T14:48:40;3.20;;;1.00;;
14903;SDS011;7543;53.148;8.234;2023-08-07T14:51:09;2.97;;;1.17;;
14903;SDS011;7543;53.148;8.234;2023-08-07T14:53:37;2.07;;;1.10;;
14903;SDS011;7543;53.148;8.234;2023-08-07T14:56:07;2.40;;;1.00;;
14903;SDS011;7543;53.148;8.234;2023-08-07T14:58:36;3.53;;;1.30;;
14903;SDS011;7543;53.148;8.234;2023-08-07T15:01:07;4.83;;;1.10;;
14903;SDS011;7543;53.148;8.234;2023-08-07T15:03:36;1.87;;;1.20;;
14903;SDS011;7543;53.148;8.234;2023-08-07T15:06:07;3.13;;;1.27;;
14903;SDS011;7543;53.148;8.234;2023-08-07T15:08:35;4.70;;;1.50;;
14903;SDS011;7543;53.148;8.234;2023-08-07T15:11:03;3.07;;;1.00;;